sensor_id;sensor_type;location;lat;lon;timestamp;pressure;altitude;pressure_sealevel;temperature
68939;BMP180;59064;45.294;11.816;2023-12-22T00:01:27;99688.00;;;1.10
68939;BMP180;59064;45.294;11.816;2023-12-22T00:03:52;99690.40;;;1.10
68939;BMP180;59064;45.294;11.816;2023-12-22T00:06:18;99685.60;;;1.00
68939;BMP180;59064;45.294;11.816;2023-12-22T00:08:43;99682.40;;;0.90
68939;BMP180;59064;45.294;11.816;2023-12-22T00:11:09;99677.80;;;0.80
68939;BMP180;59064;45.294;11.816;2023-12-22T00:13:34;99678.80;;;0.80
68939;BMP180;59064;45.294;11.816;2023-12-22T00:16:00;99666.00;;;0.70
68939;BMP180;59064;45.294;11.816;2023-12-22T00:18:26;99673.20;;;0.70
68939;BMP180;59064;45.294;11.816;2023-12-22T00:20:51;99654.80;;;0.66
68939;BMP180;59064;45.294;11.816;2023-12-22T00:23:17;99653.00;;;0.50
68939;BMP180;59064;45.294;11.816;2023-12-22T00:25:42;99654.60;;;0.50
68939;BMP180;59064;45.294;11.816;2023-12-22T00:28:07;99665.60;;;0.50
68939;BMP180;59064;45.294;11.816;2023-12-22T00:30:33;99661.80;;;0.40
68939;BMP180;59064;45.294;11.816;2023-12-22T00:32:59;99656.20;;;0.30
68939;BMP180;59064;45.294;11.816;2023-12-22T00:35:24;99654.80;;;0.40
68939;BMP180;59064;45.294;11.816;2023-12-22T00:37:50;99652.40;;;0.50
68939;BMP180;59064;45.294;11.816;2023-12-22T00:40:15;99645.60;;;0.52
68939;BMP180;59064;45.294;11.816;2023-12-22T00:42:41;99631.60;;;0.50
68939;BMP180;59064;45.294;11.816;2023-12-22T00:45:07;99644.20;;;0.50
68939;BMP180;59064;45.294;11.816;2023-12-22T00:47:33;99649.80;;;0.50
68939;BMP180;59064;45.294;11.816;2023-12-22T00:50:01;99645.00;;;0.48
68939;BMP180;59064;45.294;11.816;2023-12-22T00:52:27;99619.20;;;0.40
68939;BMP180;59064;45.294;11.816;2023-12-22T00:54:53;99630.60;;;0.30
68939;BMP180;59064;45.294;11.816;2023-12-22T00:57:18;99637.00;;;0.20
68939;BMP180;59064;45.294;11.816;2023-12-22T00:59:43;99644.20;;;0.20
68939;BMP180;59064;45.294;11.816;2023-12-22T01:02:16;99648.00;;;0.16
68939;BMP180;59064;45.294;11.816;2023-12-22T01:04:42;99644.60;;;0.10
68939;BMP180;59064;45.294;11.816;2023-12-22T01:07:08;99666.20;;;0.08
68939;BMP180;59064;45.294;11.816;2023-12-22T01:09:34;99675.60;;;0.00
68939;BMP180;59064;45.294;11.816;2023-12-22T01:12:04;99663.20;;;-0.10
68939;BMP180;59064;45.294;11.816;2023-12-22T01:14:31;99670.80;;;-0.10
68939;BMP180;59064;45.294;11.816;2023-12-22T01:16:57;99674.20;;;-0.20
68939;BMP180;59064;45.294;11.816;2023-12-22T01:19:24;99658.00;;;-0.20
68939;BMP180;59064;45.294;11.816;2023-12-22T01:21:49;99662.20;;;-0.20
68939;BMP180;59064;45.294;11.816;2023-12-22T01:24:15;99669.60;;;-0.22
68939;BMP180;59064;45.294;11.816;2023-12-22T01:26:41;99649.40;;;-0.30
68939;BMP180;59064;45.294;11.816;2023-12-22T01:29:06;99666.80;;;-0.30
68939;BMP180;59064;45.294;11.816;2023-12-22T01:31:31;99659.40;;;-0.30
68939;BMP180;59064;45.294;11.816;2023-12-22T01:33:57;99668.20;;;-0.38
68939;BMP180;59064;45.294;11.816;2023-12-22T01:36:23;99664.80;;;-0.40
68939;BMP180;59064;45.294;11.816;2023-12-22T01:38:48;99680.20;;;-0.50
68939;BMP180;59064;45.294;11.816;2023-12-22T01:41:14;99667.80;;;-0.60
68939;BMP180;59064;45.294;11.816;2023-12-22T01:43:39;99665.80;;;-0.60
68939;BMP180;59064;45.294;11.816;2023-12-22T01:46:05;99668.00;;;-0.60
68939;BMP180;59064;45.294;11.816;2023-12-22T01:48:33;99652.00;;;-0.60
68939;BMP180;59064;45.294;11.816;2023-12-22T01:50:59;99656.60;;;-0.60
68939;BMP180;59064;45.294;11.816;2023-12-22T01:53:26;99644.40;;;-0.50
68939;BMP180;59064;45.294;11.816;2023-12-22T01:55:54;99632.40;;;-0.44
68939;BMP180;59064;45.294;11.816;2023-12-22T01:58:20;99620.00;;;-0.32
68939;BMP180;59064;45.294;11.816;2023-12-22T02:00:47;99644.80;;;-0.40
68939;BMP180;59064;45.294;11.816;2023-12-22T02:03:13;99638.00;;;-0.30
68939;BMP180;59064;45.294;11.816;2023-12-22T02:05:41;99648.80;;;-0.20
68939;BMP180;59064;45.294;11.816;2023-12-22T02:08:06;99648.60;;;-0.20
68939;BMP180;59064;45.294;11.816;2023-12-22T02:10:33;99658.20;;;-0.20
68939;BMP180;59064;45.294;11.816;2023-12-22T02:12:58;99633.40;;;-0.20
68939;BMP180;59064;45.294;11.816;2023-12-22T02:15:24;99630.00;;;-0.28
68939;BMP180;59064;45.294;11.816;2023-12-22T02:18:21;99640.20;;;-0.30
68939;BMP180;59064;45.294;11.816;2023-12-22T02:20:49;99624.80;;;-0.30
68939;BMP180;59064;45.294;11.816;2023-12-22T02:23:15;99633.40;;;-0.30
68939;BMP180;59064;45.294;11.816;2023-12-22T02:25:40;99613.00;;;-0.30
68939;BMP180;59064;45.294;11.816;2023-12-22T02:28:08;99616.00;;;-0.36
68939;BMP180;59064;45.294;11.816;2023-12-22T02:30:41;99619.20;;;-0.40
68939;BMP180;59064;45.294;11.816;2023-12-22T02:33:09;99628.60;;;-0.40
68939;BMP180;59064;45.294;11.816;2023-12-22T02:35:36;99656.40;;;-0.52
68939;BMP180;59064;45.294;11.816;2023-12-22T02:38:04;99611.80;;;-0.60
68939;BMP180;59064;45.294;11.816;2023-12-22T02:40:31;99624.60;;;-0.60
68939;BMP180;59064;45.294;11.816;2023-12-22T02:42:57;99612.80;;;-0.60
68939;BMP180;59064;45.294;11.816;2023-12-22T02:45:23;99635.80;;;-0.60
68939;BMP180;59064;45.294;11.816;2023-12-22T02:47:49;99635.20;;;-0.50
68939;BMP180;59064;45.294;11.816;2023-12-22T02:50:15;99636.40;;;-0.52
68939;BMP180;59064;45.294;11.816;2023-12-22T02:52:41;99608.80;;;-0.50
68939;BMP180;59064;45.294;11.816;2023-12-22T02:55:07;99579.00;;;-0.56
68939;BMP180;59064;45.294;11.816;2023-12-22T02:57:32;99595.40;;;-0.60
68939;BMP180;59064;45.294;11.816;2023-12-22T02:59:58;99594.40;;;-0.52
68939;BMP180;59064;45.294;11.816;2023-12-22T03:02:24;99603.80;;;-0.42
68939;BMP180;59064;45.294;11.816;2023-12-22T03:04:50;99618.60;;;-0.40
68939;BMP180;59064;45.294;11.816;2023-12-22T03:07:16;99634.40;;;-0.40
68939;BMP180;59064;45.294;11.816;2023-12-22T03:09:42;99617.00;;;-0.50
68939;BMP180;59064;45.294;11.816;2023-12-22T03:12:08;99582.20;;;-0.52
68939;BMP180;59064;45.294;11.816;2023-12-22T03:14:34;99594.80;;;-0.60
68939;BMP180;59064;45.294;11.816;2023-12-22T03:17:04;99566.60;;;-0.60
68939;BMP180;59064;45.294;11.816;2023-12-22T03:19:31;99544.80;;;-0.60
68939;BMP180;59064;45.294;11.816;2023-12-22T03:21:56;99598.20;;;-0.60
68939;BMP180;59064;45.294;11.816;2023-12-22T03:24:23;99590.40;;;-0.60
68939;BMP180;59064;45.294;11.816;2023-12-22T03:26:49;99578.00;;;-0.60
68939;BMP180;59064;45.294;11.816;2023-12-22T03:29:15;99594.00;;;-0.60
68939;BMP180;59064;45.294;11.816;2023-12-22T03:31:41;99610.20;;;-0.60
68939;BMP180;59064;45.294;11.816;2023-12-22T03:34:07;99582.60;;;-0.60
68939;BMP180;59064;45.294;11.816;2023-12-22T03:36:32;99590.00;;;-0.56
68939;BMP180;59064;45.294;11.816;2023-12-22T03:38:58;99605.80;;;-0.58
68939;BMP180;59064;45.294;11.816;2023-12-22T03:41:23;99603.40;;;-0.54
68939;BMP180;59064;45.294;11.816;2023-12-22T03:43:49;99599.00;;;-0.60
68939;BMP180;59064;45.294;11.816;2023-12-22T03:46:14;99615.80;;;-0.58
68939;BMP180;59064;45.294;11.816;2023-12-22T03:48:40;99614.40;;;-0.50
68939;BMP180;59064;45.294;11.816;2023-12-22T03:51:05;99628.60;;;-0.50
68939;BMP180;59064;45.294;11.816;2023-12-22T03:53:31;99603.80;;;-0.44
68939;BMP180;59064;45.294;11.816;2023-12-22T03:55:57;99590.60;;;-0.50
68939;BMP180;59064;45.294;11.816;2023-12-22T03:58:22;99598.00;;;-0.40
68939;BMP180;59064;45.294;11.816;2023-12-22T04:00:48;99592.60;;;-0.40
68939;BMP180;59064;45.294;11.816;2023-12-22T04:03:13;99592.00;;;-0.50
68939;BMP180;59064;45.294;11.816;2023-12-22T04:05:39;99581.80;;;-0.60
68939;BMP180;59064;45.294;11.816;2023-12-22T04:08:05;99579.00;;;-0.62
68939;BMP180;59064;45.294;11.816;2023-12-22T04:10:31;99574.20;;;-0.56
68939;BMP180;59064;45.294;11.816;2023-12-22T04:12:57;99580.80;;;-0.46
68939;BMP180;59064;45.294;11.816;2023-12-22T04:15:22;99597.00;;;-0.30
68939;BMP180;59064;45.294;11.816;2023-12-22T04:17:48;99609.80;;;-0.10
68939;BMP180;59064;45.294;11.816;2023-12-22T04:20:14;99614.20;;;-0.04
68939;BMP180;59064;45.294;11.816;2023-12-22T04:22:40;99613.60;;;0.00
68939;BMP180;59064;45.294;11.816;2023-12-22T04:25:06;99620.60;;;-0.10
68939;BMP180;59064;45.294;11.816;2023-12-22T04:27:33;99606.80;;;-0.10
68939;BMP180;59064;45.294;11.816;2023-12-22T04:29:59;99614.40;;;-0.20
68939;BMP180;59064;45.294;11.816;2023-12-22T04:32:25;99616.80;;;-0.20
68939;BMP180;59064;45.294;11.816;2023-12-22T04:34:50;99621.40;;;-0.20
68939;BMP180;59064;45.294;11.816;2023-12-22T04:37:16;99616.60;;;-0.22
68939;BMP180;59064;45.294;11.816;2023-12-22T04:39:41;99613.40;;;-0.20
68939;BMP180;59064;45.294;11.816;2023-12-22T04:42:07;99623.80;;;-0.30
68939;BMP180;59064;45.294;11.816;2023-12-22T04:44:32;99650.40;;;-0.30
68939;BMP180;59064;45.294;11.816;2023-12-22T04:46:58;99657.80;;;-0.40
68939;BMP180;59064;45.294;11.816;2023-12-22T04:49:23;99660.60;;;-0.40
68939;BMP180;59064;45.294;11.816;2023-12-22T04:51:48;99684.80;;;-0.44
68939;BMP180;59064;45.294;11.816;2023-12-22T04:54:14;99687.60;;;-0.50
68939;BMP180;59064;45.294;11.816;2023-12-22T04:56:39;99688.60;;;-0.50
68939;BMP180;59064;45.294;11.816;2023-12-22T04:59:05;99720.00;;;-0.50
68939;BMP180;59064;45.294;11.816;2023-12-22T05:01:30;99700.60;;;-0.58
68939;BMP180;59064;45.294;11.816;2023-12-22T05:03:56;99711.80;;;-0.60
68939;BMP180;59064;45.294;11.816;2023-12-22T05:06:22;99705.60;;;-0.70
68939;BMP180;59064;45.294;11.816;2023-12-22T05:08:47;99712.80;;;-0.80
68939;BMP180;59064;45.294;11.816;2023-12-22T05:11:13;99705.40;;;-0.80
68939;BMP180;59064;45.294;11.816;2023-12-22T05:13:38;99720.00;;;-0.76
68939;BMP180;59064;45.294;11.816;2023-12-22T05:16:04;99732.20;;;-0.64
68939;BMP180;59064;45.294;11.816;2023-12-22T05:18:30;99710.80;;;-0.60
68939;BMP180;59064;45.294;11.816;2023-12-22T05:20:56;99710.60;;;-0.50
68939;BMP180;59064;45.294;11.816;2023-12-22T05:23:21;99717.80;;;-0.50
68939;BMP180;59064;45.294;11.816;2023-12-22T05:25:47;99711.80;;;-0.50
68939;BMP180;59064;45.294;11.816;2023-12-22T05:28:12;99712.00;;;-0.50
68939;BMP180;59064;45.294;11.816;2023-12-22T05:30:38;99730.60;;;-0.40
68939;BMP180;59064;45.294;11.816;2023-12-22T05:33:03;99724.20;;;-0.40
68939;BMP180;59064;45.294;11.816;2023-12-22T05:35:29;99706.80;;;-0.20
68939;BMP180;59064;45.294;11.816;2023-12-22T05:37:54;99711.60;;;-0.10
68939;BMP180;59064;45.294;11.816;2023-12-22T05:40:20;99727.00;;;0.00
68939;BMP180;59064;45.294;11.816;2023-12-22T05:42:45;99720.20;;;0.00
68939;BMP180;59064;45.294;11.816;2023-12-22T05:45:12;99727.00;;;0.10
68939;BMP180;59064;45.294;11.816;2023-12-22T05:47:37;99727.00;;;0.10
68939;BMP180;59064;45.294;11.816;2023-12-22T05:50:04;99736.40;;;0.10
68939;BMP180;59064;45.294;11.816;2023-12-22T05:52:29;99740.20;;;0.08
68939;BMP180;59064;45.294;11.816;2023-12-22T05:54:55;99723.00;;;0.08
68939;BMP180;59064;45.294;11.816;2023-12-22T05:57:20;99717.20;;;0.10
68939;BMP180;59064;45.294;11.816;2023-12-22T05:59:46;99715.80;;;0.10
68939;BMP180;59064;45.294;11.816;2023-12-22T06:02:11;99704.80;;;0.10
68939;BMP180;59064;45.294;11.816;2023-12-22T06:04:38;99690.40;;;0.08
68939;BMP180;59064;45.294;11.816;2023-12-22T06:07:04;99694.40;;;0.10
68939;BMP180;59064;45.294;11.816;2023-12-22T06:09:30;99711.60;;;0.10
68939;BMP180;59064;45.294;11.816;2023-12-22T06:11:55;99723.60;;;0.10
68939;BMP180;59064;45.294;11.816;2023-12-22T06:14:21;99720.80;;;0.00
68939;BMP180;59064;45.294;11.816;2023-12-22T06:16:46;99708.20;;;-0.10
68939;BMP180;59064;45.294;11.816;2023-12-22T06:19:12;99713.40;;;-0.20
68939;BMP180;59064;45.294;11.816;2023-12-22T06:21:38;99728.40;;;-0.20
68939;BMP180;59064;45.294;11.816;2023-12-22T06:24:04;99751.00;;;-0.20
68939;BMP180;59064;45.294;11.816;2023-12-22T06:26:30;99738.40;;;-0.30
68939;BMP180;59064;45.294;11.816;2023-12-22T06:28:56;99713.40;;;-0.26
68939;BMP180;59064;45.294;11.816;2023-12-22T06:31:22;99728.80;;;-0.22
68939;BMP180;59064;45.294;11.816;2023-12-22T06:33:49;99721.40;;;-0.20
68939;BMP180;59064;45.294;11.816;2023-12-22T06:36:22;99716.60;;;0.00
68939;BMP180;59064;45.294;11.816;2023-12-22T06:38:49;99726.20;;;0.10
68939;BMP180;59064;45.294;11.816;2023-12-22T06:41:20;99729.00;;;0.20
68939;BMP180;59064;45.294;11.816;2023-12-22T06:43:45;99707.80;;;0.20
68939;BMP180;59064;45.294;11.816;2023-12-22T06:46:15;99709.40;;;0.20
68939;BMP180;59064;45.294;11.816;2023-12-22T06:48:41;99735.00;;;0.48
68939;BMP180;59064;45.294;11.816;2023-12-22T06:51:07;99742.20;;;0.80
68939;BMP180;59064;45.294;11.816;2023-12-22T06:53:32;99744.40;;;0.80
68939;BMP180;59064;45.294;11.816;2023-12-22T06:55:58;99763.80;;;0.70
68939;BMP180;59064;45.294;11.816;2023-12-22T06:58:23;99764.00;;;0.60
68939;BMP180;59064;45.294;11.816;2023-12-22T07:00:51;99751.20;;;0.64
68939;BMP180;59064;45.294;11.816;2023-12-22T07:03:16;99759.00;;;0.60
68939;BMP180;59064;45.294;11.816;2023-12-22T07:05:42;99773.80;;;0.56
68939;BMP180;59064;45.294;11.816;2023-12-22T07:08:08;99758.20;;;0.50
68939;BMP180;59064;45.294;11.816;2023-12-22T07:10:33;99780.80;;;0.50
68939;BMP180;59064;45.294;11.816;2023-12-22T07:12:59;99783.60;;;0.44
68939;BMP180;59064;45.294;11.816;2023-12-22T07:15:25;99779.00;;;0.50
68939;BMP180;59064;45.294;11.816;2023-12-22T07:17:50;99802.80;;;0.40
68939;BMP180;59064;45.294;11.816;2023-12-22T07:20:16;99787.60;;;0.46
68939;BMP180;59064;45.294;11.816;2023-12-22T07:22:44;99813.40;;;0.50
68939;BMP180;59064;45.294;11.816;2023-12-22T07:25:11;99830.00;;;0.58
68939;BMP180;59064;45.294;11.816;2023-12-22T07:27:36;99813.80;;;0.60
68939;BMP180;59064;45.294;11.816;2023-12-22T07:30:02;99811.00;;;0.70
68939;BMP180;59064;45.294;11.816;2023-12-22T07:32:27;99844.40;;;0.70
68939;BMP180;59064;45.294;11.816;2023-12-22T07:34:53;99840.60;;;0.80
68939;BMP180;59064;45.294;11.816;2023-12-22T07:37:18;99842.20;;;0.82
68939;BMP180;59064;45.294;11.816;2023-12-22T07:39:44;99860.20;;;0.90
68939;BMP180;59064;45.294;11.816;2023-12-22T07:42:10;99855.80;;;1.00
68939;BMP180;59064;45.294;11.816;2023-12-22T07:44:35;99818.20;;;1.10
68939;BMP180;59064;45.294;11.816;2023-12-22T07:47:04;99822.80;;;1.24
68939;BMP180;59064;45.294;11.816;2023-12-22T07:49:30;99835.40;;;1.30
68939;BMP180;59064;45.294;11.816;2023-12-22T07:51:55;99832.80;;;1.40
68939;BMP180;59064;45.294;11.816;2023-12-22T07:54:21;99828.00;;;1.50
68939;BMP180;59064;45.294;11.816;2023-12-22T07:56:46;99836.00;;;1.60
68939;BMP180;59064;45.294;11.816;2023-12-22T07:59:12;99823.20;;;1.70
68939;BMP180;59064;45.294;11.816;2023-12-22T08:01:37;99821.00;;;1.74
68939;BMP180;59064;45.294;11.816;2023-12-22T08:04:03;99816.20;;;2.00
68939;BMP180;59064;45.294;11.816;2023-12-22T08:06:29;99804.40;;;2.10
68939;BMP180;59064;45.294;11.816;2023-12-22T08:08:55;99827.80;;;2.30
68939;BMP180;59064;45.294;11.816;2023-12-22T08:11:20;99832.40;;;2.50
68939;BMP180;59064;45.294;11.816;2023-12-22T08:13:49;99839.40;;;2.50
68939;BMP180;59064;45.294;11.816;2023-12-22T08:16:15;99856.20;;;2.62
68939;BMP180;59064;45.294;11.816;2023-12-22T08:18:40;99853.20;;;2.80
68939;BMP180;59064;45.294;11.816;2023-12-22T08:21:06;99864.40;;;2.92
68939;BMP180;59064;45.294;11.816;2023-12-22T08:23:31;99856.40;;;3.00
68939;BMP180;59064;45.294;11.816;2023-12-22T08:25:56;99850.60;;;3.02
68939;BMP180;59064;45.294;11.816;2023-12-22T08:28:23;99863.20;;;3.20
68939;BMP180;59064;45.294;11.816;2023-12-22T08:30:49;99864.60;;;3.46
68939;BMP180;59064;45.294;11.816;2023-12-22T08:33:14;99880.40;;;3.62
68939;BMP180;59064;45.294;11.816;2023-12-22T08:35:40;99884.60;;;3.80
68939;BMP180;59064;45.294;11.816;2023-12-22T08:38:05;99880.20;;;4.00
68939;BMP180;59064;45.294;11.816;2023-12-22T08:40:32;99874.00;;;4.20
68939;BMP180;59064;45.294;11.816;2023-12-22T08:42:57;99883.60;;;4.44
68939;BMP180;59064;45.294;11.816;2023-12-22T08:45:27;99896.40;;;4.64
68939;BMP180;59064;45.294;11.816;2023-12-22T08:47:59;99906.60;;;4.70
68939;BMP180;59064;45.294;11.816;2023-12-22T08:50:25;99913.60;;;4.82
68939;BMP180;59064;45.294;11.816;2023-12-22T08:52:51;99924.40;;;5.04
68939;BMP180;59064;45.294;11.816;2023-12-22T08:55:17;99922.40;;;5.30
68939;BMP180;59064;45.294;11.816;2023-12-22T08:57:43;99917.60;;;5.48
68939;BMP180;59064;45.294;11.816;2023-12-22T09:00:10;99920.00;;;5.64
68939;BMP180;59064;45.294;11.816;2023-12-22T09:02:37;99931.20;;;5.84
68939;BMP180;59064;45.294;11.816;2023-12-22T09:05:04;99934.00;;;6.10
68939;BMP180;59064;45.294;11.816;2023-12-22T09:07:33;99940.80;;;6.30
68939;BMP180;59064;45.294;11.816;2023-12-22T09:10:01;99946.60;;;6.50
68939;BMP180;59064;45.294;11.816;2023-12-22T09:12:47;99951.40;;;6.80
68939;BMP180;59064;45.294;11.816;2023-12-22T09:15:14;99943.60;;;7.10
68939;BMP180;59064;45.294;11.816;2023-12-22T09:17:43;99929.00;;;7.32
68939;BMP180;59064;45.294;11.816;2023-12-22T09:20:32;99927.20;;;7.60
68939;BMP180;59064;45.294;11.816;2023-12-22T09:23:02;99919.40;;;7.60
68939;BMP180;59064;45.294;11.816;2023-12-22T09:25:53;99917.00;;;7.50
68939;BMP180;59064;45.294;11.816;2023-12-22T09:32:13;99913.40;;;7.88
68939;BMP180;59064;45.294;11.816;2023-12-22T09:35:22;99915.20;;;8.20
68939;BMP180;59064;45.294;11.816;2023-12-22T09:38:28;99915.00;;;8.48
68939;BMP180;59064;45.294;11.816;2023-12-22T09:40:55;99917.80;;;8.52
68939;BMP180;59064;45.294;11.816;2023-12-22T09:43:21;99941.00;;;8.60
68939;BMP180;59064;45.294;11.816;2023-12-22T09:45:49;99927.80;;;8.40
68939;BMP180;59064;45.294;11.816;2023-12-22T09:48:15;99929.80;;;8.40
68939;BMP180;59064;45.294;11.816;2023-12-22T09:50:46;99935.40;;;8.30
68939;BMP180;59064;45.294;11.816;2023-12-22T09:53:13;99925.00;;;8.30
68939;BMP180;59064;45.294;11.816;2023-12-22T09:55:45;99921.20;;;8.30
68939;BMP180;59064;45.294;11.816;2023-12-22T09:58:42;99935.40;;;8.30
68939;BMP180;59064;45.294;11.816;2023-12-22T10:12:59;99927.40;;;8.10
68939;BMP180;59064;45.294;11.816;2023-12-22T10:16:06;99910.40;;;8.10
68939;BMP180;59064;45.294;11.816;2023-12-22T10:22:56;99905.80;;;8.14
68939;BMP180;59064;45.294;11.816;2023-12-22T10:26:28;99907.80;;;8.20
68939;BMP180;59064;45.294;11.816;2023-12-22T10:33:08;99912.20;;;8.40
68939;BMP180;59064;45.294;11.816;2023-12-22T10:36:43;99912.80;;;8.60
68939;BMP180;59064;45.294;11.816;2023-12-22T10:40:09;99911.80;;;8.80
68939;BMP180;59064;45.294;11.816;2023-12-22T10:50:34;99920.40;;;9.40
68939;BMP180;59064;45.294;11.816;2023-12-22T10:54:10;99905.00;;;9.60
68939;BMP180;59064;45.294;11.816;2023-12-22T11:01:11;99897.80;;;10.00
68939;BMP180;59064;45.294;11.816;2023-12-22T11:04:42;99878.20;;;10.30
68939;BMP180;59064;45.294;11.816;2023-12-22T11:08:08;99871.60;;;10.60
68939;BMP180;59064;45.294;11.816;2023-12-22T11:25:45;99870.60;;;12.28
68939;BMP180;59064;45.294;11.816;2023-12-22T11:29:14;99872.80;;;12.70
68939;BMP180;59064;45.294;11.816;2023-12-22T11:32:39;99867.80;;;12.98
68939;BMP180;59064;45.294;11.816;2023-12-22T11:35:50;99875.40;;;12.90
68939;BMP180;59064;45.294;11.816;2023-12-22T11:38:58;99868.00;;;12.90
68939;BMP180;59064;45.294;11.816;2023-12-22T11:42:07;99874.00;;;13.00
68939;BMP180;59064;45.294;11.816;2023-12-22T11:45:14;99865.80;;;12.90
68939;BMP180;59064;45.294;11.816;2023-12-22T11:48:46;99852.80;;;13.06
68939;BMP180;59064;45.294;11.816;2023-12-22T11:51:21;99846.60;;;13.38
68939;BMP180;59064;45.294;11.816;2023-12-22T11:54:44;99851.20;;;13.40
68939;BMP180;59064;45.294;11.816;2023-12-22T12:04:43;99858.40;;;13.90
68939;BMP180;59064;45.294;11.816;2023-12-22T12:08:16;99875.20;;;14.00
68939;BMP180;59064;45.294;11.816;2023-12-22T12:15:08;99865.20;;;14.30
68939;BMP180;59064;45.294;11.816;2023-12-22T12:17:58;99872.80;;;14.60
68939;BMP180;59064;45.294;11.816;2023-12-22T12:21:11;99881.40;;;14.60
68939;BMP180;59064;45.294;11.816;2023-12-22T12:24:01;99876.40;;;14.80
68939;BMP180;59064;45.294;11.816;2023-12-22T12:31:07;99877.40;;;15.32
68939;BMP180;59064;45.294;11.816;2023-12-22T12:34:06;99876.80;;;15.74
68939;BMP180;59064;45.294;11.816;2023-12-22T12:37:02;99878.40;;;16.00
68939;BMP180;59064;45.294;11.816;2023-12-22T12:43:19;99874.20;;;16.10
68939;BMP180;59064;45.294;11.816;2023-12-22T12:46:20;99885.40;;;16.10
68939;BMP180;59064;45.294;11.816;2023-12-22T12:49:09;99877.20;;;16.20
68939;BMP180;59064;45.294;11.816;2023-12-22T12:51:47;99878.40;;;16.28
68939;BMP180;59064;45.294;11.816;2023-12-22T12:54:31;99867.60;;;15.78
68939;BMP180;59064;45.294;11.816;2023-12-22T12:57:26;99887.00;;;15.10
68939;BMP180;59064;45.294;11.816;2023-12-22T13:00:28;99881.80;;;14.60
68939;BMP180;59064;45.294;11.816;2023-12-22T13:06:59;99881.00;;;13.70
68939;BMP180;59064;45.294;11.816;2023-12-22T13:10:19;99884.40;;;13.38
68939;BMP180;59064;45.294;11.816;2023-12-22T13:13:15;99900.60;;;13.04
68939;BMP180;59064;45.294;11.816;2023-12-22T13:46:27;99855.80;;;13.40
68939;BMP180;59064;45.294;11.816;2023-12-22T13:49:52;99839.80;;;13.70
68939;BMP180;59064;45.294;11.816;2023-12-22T13:59:57;99847.60;;;13.30
68939;BMP180;59064;45.294;11.816;2023-12-22T14:03:24;99835.20;;;13.22
68939;BMP180;59064;45.294;11.816;2023-12-22T14:06:05;99843.00;;;13.18
68939;BMP180;59064;45.294;11.816;2023-12-22T14:08:59;99840.40;;;13.10
68939;BMP180;59064;45.294;11.816;2023-12-22T14:15:37;99847.00;;;13.00
68939;BMP180;59064;45.294;11.816;2023-12-22T14:19:05;99856.20;;;12.90
68939;BMP180;59064;45.294;11.816;2023-12-22T14:21:50;99859.80;;;12.70
68939;BMP180;59064;45.294;11.816;2023-12-22T14:25:02;99858.40;;;12.70
68939;BMP180;59064;45.294;11.816;2023-12-22T14:27:47;99853.60;;;12.90
68939;BMP180;59064;45.294;11.816;2023-12-22T14:30:24;99855.40;;;13.20
68939;BMP180;59064;45.294;11.816;2023-12-22T14:33:00;99864.20;;;13.62
68939;BMP180;59064;45.294;11.816;2023-12-22T14:35:32;99864.20;;;13.92
68939;BMP180;59064;45.294;11.816;2023-12-22T14:38:01;99874.40;;;14.10
68939;BMP180;59064;45.294;11.816;2023-12-22T14:40:27;99867.80;;;14.28
68939;BMP180;59064;45.294;11.816;2023-12-22T14:42:57;99863.20;;;14.40
68939;BMP180;59064;45.294;11.816;2023-12-22T14:45:25;99859.00;;;14.50
68939;BMP180;59064;45.294;11.816;2023-12-22T14:47:53;99846.80;;;14.60
68939;BMP180;59064;45.294;11.816;2023-12-22T14:50:20;99837.20;;;14.78
68939;BMP180;59064;45.294;11.816;2023-12-22T14:52:49;99843.20;;;14.92
68939;BMP180;59064;45.294;11.816;2023-12-22T14:55:36;99855.40;;;15.14
68939;BMP180;59064;45.294;11.816;2023-12-22T14:58:04;99844.00;;;15.08
68939;BMP180;59064;45.294;11.816;2023-12-22T15:00:35;99839.20;;;15.00
68939;BMP180;59064;45.294;11.816;2023-12-22T15:03:05;99853.00;;;14.98
68939;BMP180;59064;45.294;11.816;2023-12-22T15:05:36;99852.40;;;15.10
68939;BMP180;59064;45.294;11.816;2023-12-22T15:08:10;99831.00;;;15.10
68939;BMP180;59064;45.294;11.816;2023-12-22T15:10:39;99832.80;;;14.90
68939;BMP180;59064;45.294;11.816;2023-12-22T15:13:08;99842.80;;;14.80
68939;BMP180;59064;45.294;11.816;2023-12-22T15:15:36;99835.00;;;14.56
68939;BMP180;59064;45.294;11.816;2023-12-22T15:18:04;99842.20;;;14.08
68939;BMP180;59064;45.294;11.816;2023-12-22T15:20:31;99839.80;;;13.56
68939;BMP180;59064;45.294;11.816;2023-12-22T15:23:01;99841.60;;;13.12
68939;BMP180;59064;45.294;11.816;2023-12-22T15:25:32;99842.00;;;12.80
68939;BMP180;59064;45.294;11.816;2023-12-22T15:28:07;99854.80;;;12.40
68939;BMP180;59064;45.294;11.816;2023-12-22T15:31:00;99862.40;;;11.66
68939;BMP180;59064;45.294;11.816;2023-12-22T15:33:33;99851.60;;;11.06
68939;BMP180;59064;45.294;11.816;2023-12-22T15:36:01;99845.80;;;10.80
68939;BMP180;59064;45.294;11.816;2023-12-22T15:39:02;99845.80;;;10.56
68939;BMP180;59064;45.294;11.816;2023-12-22T15:41:52;99840.80;;;10.32
68939;BMP180;59064;45.294;11.816;2023-12-22T15:44:18;99849.80;;;10.20
68939;BMP180;59064;45.294;11.816;2023-12-22T15:46:43;99858.00;;;10.00
68939;BMP180;59064;45.294;11.816;2023-12-22T15:49:10;99876.60;;;9.80
68939;BMP180;59064;45.294;11.816;2023-12-22T15:51:38;99871.80;;;9.58
68939;BMP180;59064;45.294;11.816;2023-12-22T15:54:05;99855.00;;;9.32
68939;BMP180;59064;45.294;11.816;2023-12-22T15:56:34;99860.80;;;9.14
68939;BMP180;59064;45.294;11.816;2023-12-22T15:59:04;99894.00;;;9.00
68939;BMP180;59064;45.294;11.816;2023-12-22T16:04:56;99883.60;;;8.78
68939;BMP180;59064;45.294;11.816;2023-12-22T16:25:13;99845.20;;;11.10
68939;BMP180;59064;45.294;11.816;2023-12-22T16:45:14;99847.40;;;12.90
68939;BMP180;59064;45.294;11.816;2023-12-22T16:48:07;99845.00;;;13.24
68939;BMP180;59064;45.294;11.816;2023-12-22T16:50:50;99834.60;;;13.30
68939;BMP180;59064;45.294;11.816;2023-12-22T16:53:28;99830.00;;;13.20
68939;BMP180;59064;45.294;11.816;2023-12-22T16:56:14;99838.60;;;13.36
68939;BMP180;59064;45.294;11.816;2023-12-22T16:59:15;99843.40;;;13.60
68939;BMP180;59064;45.294;11.816;2023-12-22T17:02:08;99833.40;;;13.70
68939;BMP180;59064;45.294;11.816;2023-12-22T17:05:01;99835.60;;;13.90
68939;BMP180;59064;45.294;11.816;2023-12-22T17:07:27;99837.60;;;14.16
68939;BMP180;59064;45.294;11.816;2023-12-22T17:10:14;99832.00;;;14.40